• Join FlightAware (Why Join?)
  • Login
  • US Flag 
07:37PM EST


 

Airport Tracker/Info


-or-


 

Live Flight TrackerFlight Track Log ✈ JAL96 ✈ 18-Dec-2013 ✈ RCSS / TSA - RJTT / HND

Flight Track Log - Related Links

Times and Time Zones

All times are in EST time to prevent confusion due to time zone crossing. See the JAL96 flight status page for this flight to view local times or setup timezone preferences in your user account.

Time Position Orientation Groundspeed Altitude Reporting Facility
EST Latitude Longitude Course Direction KTS MPH feet Rate Location/Type
09:06PM 25.4317 122.0653 52° Northeast  Level Estimated
09:07PM 25.5220 122.1942 52° Northeast  Level Estimated
09:08PM 25.6122 122.3233 52° Northeast  Level Estimated
09:09PM 25.7009 122.4506 52° Northeast  Level Estimated
09:10PM 25.7895 122.5781 52° Northeast  Level Estimated
09:11PM 25.8779 122.7058 52° Northeast  Level Estimated
09:12PM 25.9663 122.8337 52° Northeast  Level Estimated
09:13PM 26.0545 122.9617 52° Northeast  Level Estimated
09:14PM 26.1426 123.0900 53° Northeast  Level Estimated
09:15PM 26.2306 123.2184 53° Northeast  Level Estimated
09:16PM 26.3186 123.3471 53° Northeast  Level Estimated
09:17PM 26.4063 123.4759 53° Northeast  Level Estimated
09:18PM 26.4940 123.6049 53° Northeast  Level Estimated
09:19PM 26.5816 123.7342 53° Northeast  Level Estimated
09:20PM 26.6690 123.8636 53° Northeast  Level Estimated
09:21PM 26.7563 123.9932 53° Northeast  Level Estimated
09:22PM 26.8435 124.1230 53° Northeast  Level Estimated
09:23PM 26.9306 124.2531 53° Northeast  Level Estimated
09:24PM 27.0175 124.3833 53° Northeast  Level Estimated
09:25PM 27.1044 124.5137 53° Northeast  Level Estimated
09:26PM 27.1911 124.6443 53° Northeast  Level Estimated
09:27PM 27.2797 124.7783 53° Northeast  Level Estimated
09:28PM 27.3682 124.9124 53° Northeast  Level Estimated
09:29PM 27.4566 125.0467 53° Northeast  Level Estimated
09:30PM 27.5449 125.1813 53° Northeast  Level Estimated
09:31PM 27.6330 125.3161 54° Northeast  Level Estimated
09:32PM 27.7210 125.4511 54° Northeast  Level Estimated
09:33PM 27.8089 125.5863 54° Northeast  Level Estimated
09:34PM 27.8966 125.7217 54° Northeast  Level Estimated
09:35PM 27.9842 125.8574 54° Northeast  Level Estimated
09:36PM 28.0717 125.9933 54° Northeast  Level Estimated
09:37PM 28.1590 126.1294 54° Northeast  Level Estimated
09:38PM 28.2462 126.2657 54° Northeast  Level Estimated
09:39PM 28.3333 126.4023 54° Northeast  Level Estimated
09:40PM 28.4202 126.5390 54° Northeast  Level Estimated
09:41PM 28.5070 126.6760 54° Northeast  Level Estimated
09:42PM 28.5937 126.8132 54° Northeast  Level Estimated
09:43PM 28.6802 126.9507 54° Northeast  Level Estimated
09:44PM 28.7665 127.0883 54° Northeast  Level Estimated
09:45PM 28.8528 127.2262 54° Northeast  Level Estimated
09:46PM 28.9389 127.3644 55° Northeast  Level Estimated
09:47PM 29.0248 127.5027 55° Northeast  Level Estimated
09:48PM 29.1106 127.6413 55° Northeast  Level Estimated
09:49PM 29.1963 127.7801 55° Northeast  Level Estimated
09:50PM 29.2818 127.9192 55° Northeast  Level Estimated
09:51PM 29.3672 128.0585 55° Northeast  Level Estimated
09:52PM 29.4524 128.1980 55° Northeast  Level Estimated
09:53PM 29.5375 128.3377 55° Northeast  Level Estimated
09:54PM 29.6225 128.4777 55° Northeast  Level Estimated
09:55PM 29.7073 128.6180 55° Northeast  Level Estimated
09:56PM 29.7919 128.7584 55° Northeast  Level Estimated
09:57PM 29.8764 128.8991 55° Northeast  Level Estimated
09:58PM 29.9608 129.0401 55° Northeast  Level Estimated
09:59PM 30.0450 129.1812 55° Northeast  Level Estimated
10:00PM 30.1290 129.3226 55° Northeast  Level Estimated
10:01PM 30.2129 129.4643 56° Northeast  Level Estimated
10:02PM 30.2966 129.6062 56° Northeast  Level Estimated
10:03PM 30.3802 129.7484 56° Northeast  Level Estimated
10:04PM 30.4637 129.8907 56° Northeast  Level Estimated
10:05PM 30.5470 130.0334 56° Northeast  Level Estimated
10:06PM 30.6301 130.1762 56° Northeast  Level Estimated
10:07PM 30.7131 130.3194 56° Northeast  Level Estimated
10:08PM 30.7959 130.4627 56° Northeast  Level Estimated
10:09PM 30.8785 130.6063 56° Northeast  Level Estimated
10:10PM 30.9610 130.7502 56° Northeast  Level Estimated
10:11PM 31.0434 130.8943 56° Northeast  Level Estimated
10:12PM 31.1255 131.0387 56° Northeast  Level Estimated
10:13PM 31.2076 131.1833 56° Northeast  Level Estimated
10:14PM 31.2894 131.3281 56° Northeast  Level Estimated
10:15PM 31.3711 131.4732 57° Northeast  Level Estimated
10:16PM 31.4526 131.6186 57° Northeast  Level Estimated
10:17PM 31.5340 131.7642 57° Northeast  Level Estimated
10:18PM 31.6152 131.9101 57° Northeast  Level Estimated
10:19PM 31.6962 132.0562 57° Northeast  Level Estimated
10:20PM 31.7771 132.2026 57° Northeast  Level Estimated
10:21PM 31.8578 132.3492 57° Northeast  Level Estimated
10:22PM 31.9383 132.4961 57° Northeast  Level Estimated
10:23PM 32.0187 132.6432 57° Northeast  Level Estimated
10:24PM 32.0989 132.7906 57° Northeast  Level Estimated
10:25PM 32.1789 132.9383 57° Northeast  Level Estimated
10:26PM 32.2587 133.0862 57° Northeast  Level Estimated
10:27PM 32.3384 133.2344 58° Northeast  Level Estimated
10:28PM 32.4179 133.3828 58° Northeast  Level Estimated
10:29PM 32.4972 133.5316 58° Northeast  Level Estimated
10:30PM 32.5764 133.6805 58° Northeast  Level Estimated
10:31PM 32.6553 133.8297 58° Northeast  Level Estimated
10:32PM 32.7341 133.9792 58° Northeast  Level Estimated
10:33PM 32.8128 134.1290 58° Northeast  Level Estimated
10:34PM 32.8912 134.2790 58° Northeast  Level Estimated
10:35PM 32.9695 134.4293 58° Northeast  Level Estimated
10:36PM 33.0475 134.5799 58° Northeast  Level Estimated
10:37PM 33.1254 134.7307 58° Northeast  Level Estimated
10:38PM 33.2032 134.8818 58° Northeast  Level Estimated
10:39PM 33.2807 135.0331 58° Northeast  Level Estimated
10:40PM 33.3580 135.1848 59° Northeast  Level Estimated
10:41PM 33.4352 135.3367 59° Northeast  Level Estimated
10:42PM 33.5122 135.4888 59° Northeast  Level Estimated
10:43PM 33.5890 135.6413 59° Northeast  Level Estimated
10:44PM 33.6656 135.7940 59° Northeast  Level Estimated
10:45PM 33.7420 135.9470 59° Northeast  Level Estimated
10:46PM 33.8182 136.1002 59° Northeast  Level Estimated
10:47PM 33.8943 136.2538 59° Northeast  Level Estimated
10:48PM 33.9701 136.4075 59° Northeast  Level Estimated
10:49PM 34.0458 136.5616 59° Northeast  Level Estimated
10:50PM 34.1213 136.7160 59° Northeast  Level Estimated
10:51PM 34.1965 136.8706 59° Northeast  Level Estimated
10:52PM 34.2716 137.0255 60° Northeast  Level Estimated
10:53PM 34.3465 137.1807 60° Northeast  Level Estimated
10:54PM 34.4212 137.3361 60° Northeast  Level Estimated
10:55PM 34.4957 137.4919 60° Northeast  Level Estimated
10:56PM 34.5700 137.6479 60° Northeast  Level Estimated
10:57PM 34.6440 137.8042 60° Northeast  Level Estimated
10:58PM 34.7179 137.9607 60° Northeast  Level Estimated
10:59PM 34.7916 138.1176 60° Northeast  Level Estimated
11:00PM 34.8651 138.2747 60° Northeast  Level Estimated
11:01PM 34.9384 138.4321 60° Northeast  Level Estimated
11:02PM 35.0103 138.5874 60° Northeast  Level Estimated
11:03PM 35.0821 138.7429 61° Northeast  Level Estimated
11:04PM 35.1537 138.8987 61° Northeast  Level Estimated
11:05PM 35.2250 139.0547 61° Northeast  Level Estimated
11:06PM 35.2962 139.2110 61° Northeast  Level Estimated
11:07PM 35.3671 139.3677 61° Northeast  Level Estimated
11:08PM 35.4379 139.5246 61° Northeast  Level Estimated
11:09PM 35.5095 139.6842 61° Northeast  Level Estimated
11:10PM 35.5523 139.7797 61° Northeast  Level Estimated
11:11PM 35.5523 139.7797 122° Southeast  Level Estimated
11:12PM 35.5523 139.7797 122° Southeast  Level Estimated
11:13PM 35.5523 139.7797 122° Southeast  Level Estimated
11:14PM 35.5523 139.7797 122° Southeast  Level Estimated
11:15PM 35.5523 139.7797 122° Southeast  Level Estimated
11:16PM 35.5523 139.7797 122° Southeast  Level Estimated
11:17PM 35.5523 139.7797 122° Southeast  Level Estimated
11:18PM 35.5523 139.7797 122° Southeast  Level Estimated
11:19PM 35.5523 139.7797 122° Southeast  Level Estimated
11:20PM 35.5523 139.7797 122° Southeast  Level Estimated
11:21PM 35.5523 139.7797 122° Southeast  Level Estimated